Time;durP1;ratioP1;P1;durP2;ratioP2;P2;SDS_P1;SDS_P2;PMS_P1;PMS_P2;Temp;Humidity;BMP_temperature;BMP_pressure;BME280_temperature;BME280_humidity;BME280_pressure;Samples;Min_cycle;Max_cycle;Signal;HPM_P1;HPM_P2
2022/12/08 00:02:41;;;;;;;14.30;10.32;;;;;;;4.46;80.69;99704.19;10327759;28;20069;-66
2022/12/08 00:13:02;;;;;;;14.32;10.82;;;;;;;4.41;80.79;99698.34;10323594;28;20088;-63
2022/12/08 00:18:04;;;;;;;12.57;10.00;;;;;;;4.44;80.78;99690.25;10316693;28;20060;-65
2022/12/08 00:23:05;;;;;;;13.30;10.45;;;;;;;4.63;80.14;99694.34;10314556;28;20682;-62
2022/12/08 00:28:07;;;;;;;13.95;10.65;;;;;;;4.55;80.15;99687.78;10322267;28;20046;-64
2022/12/08 00:33:09;;;;;;;13.55;10.70;;;;;;;4.67;80.29;99686.16;10312091;28;20046;-64
2022/12/08 00:38:11;;;;;;;12.98;11.55;;;;;;;4.73;79.73;99690.19;10314628;28;20045;-62
2022/12/08 00:43:13;;;;;;;13.68;11.80;;;;;;;4.59;80.20;99680.50;10320354;28;20061;-63
2022/12/08 00:48:14;;;;;;;12.98;10.43;;;;;;;4.44;79.85;99653.34;10326528;28;20136;-65
2022/12/08 00:53:15;;;;;;;12.27;10.98;;;;;;;4.37;80.46;99652.91;10327939;28;20054;-64
2022/12/08 00:58:17;;;;;;;13.15;10.07;;;;;;;4.57;80.29;99674.50;10318670;28;20097;-62
2022/12/08 01:03:18;;;;;;;13.98;10.73;;;;;;;4.62;80.15;99669.75;10322940;28;20072;-63
2022/12/08 01:08:20;;;;;;;13.30;11.13;;;;;;;4.54;80.30;99661.53;10324301;28;20056;-63
2022/12/08 01:13:21;;;;;;;14.73;10.43;;;;;;;4.50;80.43;99652.94;10321213;28;20049;-64
2022/12/08 01:18:22;;;;;;;13.18;11.05;;;;;;;4.54;80.19;99649.16;10318884;28;20751;-63
2022/12/08 01:23:24;;;;;;;15.65;11.82;;;;;;;4.56;80.47;99663.13;10319568;28;20489;-63
2022/12/08 01:28:25;;;;;;;13.73;11.27;;;;;;;4.58;80.53;99671.75;10321190;28;20101;-64
2022/12/08 01:33:27;;;;;;;16.65;12.73;;;;;;;4.65;80.49;99663.44;10320086;28;20049;-64
2022/12/08 01:38:29;;;;;;;14.65;11.80;;;;;;;4.67;80.13;99651.00;10320008;28;20058;-64
2022/12/08 01:43:55;;;;;;;15.98;11.77;;;;;;;4.49;80.59;99635.47;10324117;28;20447;-64
2022/12/08 01:49:09;;;;;;;14.80;11.98;;;;;;;4.77;80.13;99652.09;10320075;28;20065;-62
2022/12/08 01:54:11;;;;;;;15.07;11.67;;;;;;;4.78;79.72;99638.81;10318077;28;20072;-63
2022/12/08 01:59:13;;;;;;;17.88;12.50;;;;;;;4.67;79.91;99628.13;10319858;28;20054;-63
2022/12/08 02:04:14;;;;;;;16.83;11.93;;;;;;;4.72;80.26;99638.38;10320223;28;20521;-63
2022/12/08 02:09:16;;;;;;;16.52;12.25;;;;;;;4.85;80.04;99641.91;10319344;28;20073;-63
2022/12/08 02:14:17;;;;;;;15.00;12.18;;;;;;;4.78;80.34;99630.91;10321204;28;20050;-64
2022/12/08 02:19:39;;;;;;;15.88;11.98;;;;;;;4.83;80.08;99627.94;10324367;28;20144;-62
2022/12/08 02:24:51;;;;;;;14.65;12.13;;;;;;;4.88;79.94;99628.50;10323465;28;20057;-64
2022/12/08 02:30:11;;;;;;;15.55;12.88;;;;;;;4.74;80.77;99623.28;10320011;28;20049;-64
2022/12/08 02:35:24;;;;;;;14.00;11.63;;;;;;;4.65;80.71;99613.34;10313874;28;20050;-63
2022/12/08 02:41:16;;;;;;;17.83;13.68;;;;;;;4.61;81.23;99607.47;10322779;28;20488;-64
2022/12/08 02:46:29;;;;;;;15.60;13.20;;;;;;;4.60;81.31;99606.59;10318842;28;20154;-62
2022/12/08 02:51:31;;;;;;;15.32;12.50;;;;;;;4.59;81.37;99599.66;10324486;28;20050;-63
2022/12/08 02:56:42;;;;;;;17.20;13.27;;;;;;;4.60;80.88;99595.22;10325222;28;20893;-63
2022/12/08 03:01:58;;;;;;;16.63;13.10;;;;;;;4.66;81.18;99605.34;10322451;28;20042;-64
2022/12/08 03:07:09;;;;;;;17.75;13.38;;;;;;;4.74;81.01;99602.19;10326966;28;20619;-64
2022/12/08 03:12:32;;;;;;;17.42;12.43;;;;;;;4.87;80.94;99581.97;10324739;28;20088;-63
2022/12/08 03:17:36;;;;;;;15.45;12.75;;;;;;;4.94;79.81;99587.69;10322211;28;20043;-64
2022/12/08 03:22:40;;;;;;;13.93;11.73;;;;;;;4.81;80.10;99587.66;10324975;28;20046;-64
2022/12/08 03:27:41;;;;;;;17.60;13.57;;;;;;;4.74;80.39;99578.47;10324975;28;20054;-64
2022/12/08 03:32:51;;;;;;;17.20;12.82;;;;;;;4.70;80.64;99563.78;10317345;28;20130;-63
2022/12/08 03:38:08;;;;;;;16.92;13.18;;;;;;;4.64;80.70;99553.66;10324253;28;20433;-63
2022/12/08 03:43:09;;;;;;;14.35;12.82;;;;;;;4.70;80.64;99553.25;10326432;28;20903;-64
2022/12/08 03:48:10;;;;;;;14.35;12.30;;;;;;;4.79;80.53;99557.94;10320195;28;20424;-65
2022/12/08 03:53:12;;;;;;;17.75;12.05;;;;;;;4.83;80.24;99562.03;10319748;28;20054;-64
2022/12/08 03:58:13;;;;;;;15.52;12.13;;;;;;;4.80;80.67;99543.78;10326488;28;20057;-64
2022/12/08 04:03:14;;;;;;;17.45;13.07;;;;;;;4.75;80.47;99543.25;10326840;28;20050;-64
2022/12/08 04:08:16;;;;;;;16.10;13.25;;;;;;;4.72;80.73;99536.38;10320162;28;20073;-64
2022/12/08 04:13:17;;;;;;;18.58;13.07;;;;;;;4.63;81.02;99538.81;10321787;28;20043;-63
2022/12/08 04:18:19;;;;;;;16.50;12.63;;;;;;;4.53;81.40;99533.28;10321831;28;20048;-64
2022/12/08 04:23:20;;;;;;;15.32;12.23;;;;;;;4.50;82.18;99531.69;10322351;28;20057;-63
2022/12/08 04:28:21;;;;;;;17.05;13.57;;;;;;;4.64;81.93;99536.06;10321012;28;20057;-63
2022/12/08 04:33:23;;;;;;;15.60;12.10;;;;;;;4.58;81.89;99531.22;10318870;28;20081;-63
2022/12/08 04:38:24;;;;;;;16.23;12.23;;;;;;;4.49;82.38;99523.91;10321514;28;20055;-63
2022/12/08 04:43:26;;;;;;;19.00;13.15;;;;;;;4.54;82.44;99522.66;10320398;28;20049;-62
2022/12/08 04:48:27;;;;;;;15.57;13.05;;;;;;;4.52;83.13;99524.56;10322806;28;20053;-64
2022/12/08 04:53:29;;;;;;;16.23;13.13;;;;;;;4.38;83.35;99516.72;10323994;28;20038;-63
2022/12/08 04:58:30;;;;;;;15.52;12.50;;;;;;;4.45;83.73;99515.38;10321138;28;20137;-66
2022/12/08 05:03:31;;;;;;;19.25;12.48;;;;;;;4.36;83.81;99502.81;10315853;28;20050;-62
2022/12/08 05:08:33;;;;;;;16.13;12.80;;;;;;;4.45;83.64;99507.47;10322261;28;20076;-63
2022/12/08 05:13:35;;;;;;;15.82;12.30;;;;;;;4.27;84.50;99503.44;10329047;28;20139;-63
2022/12/08 05:18:37;;;;;;;16.02;13.00;;;;;;;4.30;85.18;99511.97;10326809;28;20472;-62
2022/12/08 05:23:38;;;;;;;15.02;12.07;;;;;;;4.38;84.72;99514.94;10323802;28;20137;-62
2022/12/08 05:28:40;;;;;;;20.60;14.95;;;;;;;4.42;84.02;99503.22;10332208;28;20052;-62
2022/12/08 05:33:44;;;;;;;15.98;11.27;;;;;;;4.35;84.01;99487.94;10334270;28;20050;-62
2022/12/08 05:38:46;;;;;;;16.67;12.95;;;;;;;4.04;84.08;99421.50;10338311;28;20073;-62
2022/12/08 05:43:47;;;;;;;16.17;12.70;;;;;;;4.54;83.40;99485.75;10332407;28;20117;-63
2022/12/08 05:48:49;;;;;;;17.40;12.60;;;;;;;4.59;83.32;99488.94;10334437;28;20405;-63
2022/12/08 05:53:51;;;;;;;17.17;11.90;;;;;;;4.40;84.00;99473.50;10327600;28;20842;-62
2022/12/08 05:58:53;;;;;;;17.48;11.95;;;;;;;4.62;84.27;99487.88;10320104;28;20137;-63
2022/12/08 06:03:55;;;;;;;13.88;11.60;;;;;;;4.35;84.02;99466.84;10320112;28;20050;-63
2022/12/08 06:08:57;;;;;;;16.08;12.02;;;;;;;4.55;84.20;99494.53;10320132;28;20070;-62
2022/12/08 06:13:58;;;;;;;15.10;12.65;;;;;;;4.55;84.39;99487.44;10321414;28;20068;-63
2022/12/08 06:18:59;;;;;;;14.38;12.00;;;;;;;4.58;84.54;99495.16;10319053;28;20062;-63
2022/12/08 06:24:01;;;;;;;16.52;12.05;;;;;;;4.66;84.24;99491.16;10321095;28;20511;-62
2022/12/08 06:29:03;;;;;;;15.43;12.15;;;;;;;4.51;84.54;99474.59;10320744;28;20681;-63
2022/12/08 06:34:05;;;;;;;14.60;12.07;;;;;;;4.58;84.29;99481.97;10319858;28;20077;-63
2022/12/08 06:39:08;;;;;;;15.88;12.00;;;;;;;4.51;84.87;99491.22;10316434;28;20053;-62
2022/12/08 06:44:10;;;;;;;15.82;11.60;;;;;;;4.34;85.29;99484.47;10319162;28;20504;-61
2022/12/08 06:49:11;;;;;;;15.13;12.02;;;;;;;4.41;85.22;99477.84;10315681;28;20052;-62
2022/12/08 06:54:12;;;;;;;15.02;11.57;;;;;;;4.22;86.46;99478.22;10320799;28;20618;-62
2022/12/08 06:59:16;;;;;;;16.13;11.13;;;;;;;4.19;87.32;99482.88;10313756;28;20058;-62
2022/12/08 07:04:17;;;;;;;16.00;11.57;;;;;;;4.25;86.40;99483.28;10316999;28;20374;-63
2022/12/08 07:09:19;;;;;;;13.85;11.80;;;;;;;4.20;86.03;99482.75;10319223;28;20081;-63
2022/12/08 07:14:23;;;;;;;14.77;11.40;;;;;;;4.19;86.31;99481.06;10316104;28;20046;-64
2022/12/08 07:19:24;;;;;;;12.00;8.37;;;;;;;4.29;88.89;99490.97;10319403;28;20049;-63
2022/12/08 07:24:26;;;;;;;14.70;12.00;;;;;;;4.37;87.22;99486.06;10317967;28;20045;-64
2022/12/08 07:29:27;;;;;;;14.70;11.98;;;;;;;4.31;86.22;99473.28;10316914;28;20281;-61
2022/12/08 07:34:28;;;;;;;13.93;11.77;;;;;;;4.25;86.40;99482.44;10315766;28;20069;-63
2022/12/08 07:39:30;;;;;;;15.07;12.13;;;;;;;4.29;86.71;99477.81;10321644;28;20065;-63
2022/12/08 07:44:31;;;;;;;14.90;11.80;;;;;;;4.09;87.18;99484.41;10317812;28;20076;-62
2022/12/08 07:49:32;;;;;;;11.82;10.50;;;;;;;4.20;87.10;99479.25;10317744;28;20551;-62
2022/12/08 07:54:34;;;;;;;18.45;11.95;;;;;;;4.12;86.71;99477.13;10311233;28;20472;-64
2022/12/08 07:59:35;;;;;;;13.65;10.93;;;;;;;3.80;87.20;99456.41;10315703;28;20045;-63
2022/12/08 08:04:36;;;;;;;14.25;11.45;;;;;;;3.99;87.15;99458.66;10317159;28;20516;-63
2022/12/08 08:09:38;;;;;;;12.43;10.35;;;;;;;4.03;87.68;99485.66;10317047;28;20137;-64
2022/12/08 08:14:39;;;;;;;14.35;11.30;;;;;;;3.94;87.67;99475.72;10316752;28;20058;-63
2022/12/08 08:19:41;;;;;;;14.85;12.00;;;;;;;3.99;88.35;99484.16;10313736;28;20049;-62
2022/12/08 08:24:42;;;;;;;16.90;12.32;;;;;;;3.97;88.03;99481.63;10305079;28;20045;-62
2022/12/08 08:29:45;;;;;;;15.93;12.57;;;;;;;3.96;88.55;99484.34;10315429;28;20074;-63
2022/12/08 08:34:47;;;;;;;14.40;12.18;;;;;;;3.91;88.50;99475.94;10318010;28;20049;-62
2022/12/08 08:39:48;;;;;;;15.65;11.90;;;;;;;3.96;88.17;99479.09;10318276;28;20513;-64
2022/12/08 08:44:49;;;;;;;16.58;11.98;;;;;;;3.98;88.33;99485.09;10315853;28;20151;-63
2022/12/08 08:49:51;;;;;;;15.23;11.15;;;;;;;4.03;87.16;99490.91;10316379;28;20221;-63
2022/12/08 08:54:52;;;;;;;16.08;12.15;;;;;;;4.01;87.88;99485.75;10311324;28;20272;-62
2022/12/08 08:59:53;;;;;;;13.13;10.43;;;;;;;4.16;87.50;99481.25;10314906;28;20054;-62
2022/12/08 09:04:55;;;;;;;14.02;11.00;;;;;;;4.30;86.67;99466.34;10321028;28;20058;-63
2022/12/08 09:09:57;;;;;;;14.50;11.10;;;;;;;4.29;86.31;99467.28;10325096;28;20642;-62
2022/12/08 09:15:03;;;;;;;12.40;10.13;;;;;;;4.47;85.49;99473.09;10323063;28;20184;-62
2022/12/08 09:20:06;;;;;;;12.48;10.82;;;;;;;4.42;85.12;99465.50;10319340;28;20680;-62
2022/12/08 09:25:08;;;;;;;14.82;10.85;;;;;;;4.48;85.04;99474.78;10320837;28;23701;-64
2022/12/08 09:30:10;;;;;;;12.93;10.93;;;;;;;4.63;84.45;99488.72;10315276;28;20054;-63
2022/12/08 09:35:12;;;;;;;13.98;10.40;;;;;;;4.80;83.88;99469.94;10316384;28;20054;-63
2022/12/08 09:40:17;;;;;;;13.65;9.73;;;;;;;4.77;83.75;99476.28;10326961;28;20141;-64
2022/12/08 09:45:22;;;;;;;13.13;10.18;;;;;;;4.79;83.55;99473.53;10323012;28;20396;-63
2022/12/08 09:50:42;;;;;;;13.35;10.35;;;;;;;4.84;83.82;99466.16;10315160;28;20159;-63
2022/12/08 09:55:48;;;;;;;13.40;9.95;;;;;;;4.76;81.97;99452.66;10319645;28;20054;-61
2022/12/08 10:00:49;;;;;;;15.68;10.45;;;;;;;5.23;82.45;99456.38;10322940;28;20045;-60
2022/12/08 10:06:04;;;;;;;11.73;10.18;;;;;;;5.82;81.03;99444.25;10318014;28;20412;-61
2022/12/08 10:11:15;;;;;;;13.67;9.97;;;;;;;5.57;79.24;99439.91;10320392;28;20084;-61
2022/12/08 10:16:39;;;;;;;11.43;9.40;;;;;;;5.54;79.32;99441.00;10324172;28;20077;-62
2022/12/08 10:21:41;;;;;;;11.03;8.60;;;;;;;5.89;78.27;99419.06;10321364;28;20906;-61
2022/12/08 10:26:44;;;;;;;11.90;9.13;;;;;;;6.05;77.51;99436.44;10323653;28;20065;-62
2022/12/08 10:31:45;;;;;;;11.95;9.18;;;;;;;5.79;78.19;99426.00;10321422;28;21766;-61
2022/12/08 10:36:47;;;;;;;10.38;8.68;;;;;;;5.54;77.87;99435.72;10315143;28;20062;-63
2022/12/08 10:41:50;;;;;;;12.05;9.73;;;;;;;5.38;78.74;99427.22;10320951;28;20058;-61
2022/12/08 10:46:51;;;;;;;10.85;8.10;;;;;;;5.36;78.80;99426.47;10320139;28;20054;-62
2022/12/08 10:51:53;;;;;;;9.55;8.25;;;;;;;5.49;78.34;99419.34;10321400;28;20473;-62
2022/12/08 10:56:56;;;;;;;10.07;8.05;;;;;;;5.63;77.14;99407.78;10320058;28;20054;-62
2022/12/08 11:01:58;;;;;;;10.95;8.52;;;;;;;5.80;77.04;99407.38;10321019;28;20381;-62
2022/12/08 11:07:03;;;;;;;11.65;8.27;;;;;;;5.97;75.24;99395.59;10314198;28;20218;-62
2022/12/08 11:12:16;;;;;;;9.30;7.18;;;;;;;7.18;71.60;99399.56;10319433;28;20578;-62
2022/12/08 11:17:20;;;;;;;8.60;7.35;;;;;;;8.00;67.49;99393.78;10312942;28;20056;-62
2022/12/08 11:22:26;;;;;;;8.23;6.93;;;;;;;7.43;67.94;99388.69;10314629;28;20062;-62
2022/12/08 11:27:28;;;;;;;10.13;7.65;;;;;;;7.31;69.12;99387.03;10322481;28;20052;-62
2022/12/08 11:32:29;;;;;;;8.05;6.97;;;;;;;7.59;67.41;99398.00;10325023;28;20053;-60
2022/12/08 11:37:40;;;;;;;9.80;7.32;;;;;;;7.07;69.06;99379.22;10320986;28;20216;-61
2022/12/08 11:42:54;;;;;;;11.60;8.05;;;;;;;6.87;69.37;99357.00;10316460;28;21944;-60
2022/12/08 11:48:08;;;;;;;9.85;7.78;;;;;;;6.62;71.11;99374.81;10317600;28;20038;-63
2022/12/08 11:53:19;;;;;;;9.90;7.78;;;;;;;6.26;72.18;99360.84;10309419;28;20487;-63
2022/12/08 11:58:43;;;;;;;11.52;9.30;;;;;;;6.18;73.00;99352.66;10312085;28;20049;-61
2022/12/08 12:03:52;;;;;;;10.40;8.45;;;;;;;7.74;67.95;99354.34;10315308;28;20042;-60
2022/12/08 12:09:16;;;;;;;8.85;7.63;;;;;;;10.77;58.91;99343.50;10313312;28;20054;-63
2022/12/08 12:14:46;;;;;;;9.45;7.22;;;;;;;11.20;54.87;99339.34;10317893;28;20496;-61
2022/12/08 12:19:48;;;;;;;8.20;7.18;;;;;;;9.64;58.32;99329.19;10316089;28;20065;-63
2022/12/08 12:24:51;;;;;;;8.82;6.90;;;;;;;9.22;60.07;99324.09;10317110;28;20054;-60
2022/12/08 12:29:57;;;;;;;8.82;7.93;;;;;;;9.77;58.38;99326.22;10315189;28;20484;-61
2022/12/08 12:34:59;;;;;;;10.65;7.15;;;;;;;10.69;55.71;99308.78;10314485;28;20135;-62
2022/12/08 12:40:06;;;;;;;9.50;5.72;;;;;;;9.48;57.62;99308.47;10326589;28;20054;-62
2022/12/08 12:45:24;;;;;;;8.20;6.60;;;;;;;8.44;61.42;99322.06;10325545;28;20054;-62
2022/12/08 12:50:31;;;;;;;9.25;6.22;;;;;;;8.13;63.61;99320.16;10327643;28;20054;-61
2022/12/08 12:55:45;;;;;;;11.70;6.72;;;;;;;7.15;65.80;99256.91;10324428;28;20506;-62
2022/12/08 13:00:46;;;;;;;9.38;6.43;;;;;;;8.02;65.03;99296.41;10330799;28;20054;-61
2022/12/08 13:05:51;;;;;;;6.25;5.63;;;;;;;7.95;63.58;99297.91;10331735;28;20050;-62
2022/12/08 13:11:08;;;;;;;7.53;6.03;;;;;;;7.67;64.62;99316.13;10335067;28;20076;-61
2022/12/08 13:16:09;;;;;;;8.55;6.10;;;;;;;8.07;63.98;99307.44;10331622;28;20057;-62
2022/12/08 13:21:22;;;;;;;8.05;6.07;;;;;;;9.85;57.24;99305.09;10325903;28;20056;-61
2022/12/08 13:26:25;;;;;;;7.05;5.40;;;;;;;8.44;61.36;99298.19;10321403;28;20064;-61
2022/12/08 13:31:40;;;;;;;7.43;5.80;;;;;;;7.72;63.23;99294.53;10322552;28;20586;-61
2022/12/08 13:37:09;;;;;;;6.75;5.65;;;;;;;7.11;65.46;99292.50;10323147;28;20046;-60
2022/12/08 13:42:11;;;;;;;6.07;5.15;;;;;;;6.77;66.79;99305.78;10336283;28;20049;-62
2022/12/08 13:47:18;;;;;;;9.15;5.10;;;;;;;6.55;67.49;99281.91;10323090;28;20122;-63
2022/12/08 13:52:47;;;;;;;7.22;4.70;;;;;;;6.89;66.00;99276.56;10324783;28;20042;-62
2022/12/08 13:58:33;;;;;;;8.52;5.45;;;;;;;6.95;65.77;99291.13;10323132;28;20077;-61
2022/12/08 14:03:55;;;;;;;6.47;4.95;;;;;;;7.22;65.31;99284.50;10343583;28;20057;-61
2022/12/08 14:09:20;;;;;;;9.40;6.97;;;;;;;7.15;64.40;99292.13;10326852;28;20513;-61
2022/12/08 14:14:28;;;;;;;6.53;4.50;;;;;;;6.83;64.24;99289.44;10314994;28;20211;-61
2022/12/08 14:19:57;;;;;;;4.55;3.08;;;;;;;6.53;63.08;99288.25;10322389;28;20054;-62
2022/12/08 14:24:58;;;;;;;4.65;3.40;;;;;;;6.28;63.14;99295.50;10317095;28;20595;-62
2022/12/08 14:30:14;;;;;;;6.38;4.18;;;;;;;6.24;64.03;99304.59;10321646;28;20050;-62
2022/12/08 14:35:29;;;;;;;3.67;2.75;;;;;;;6.10;63.38;99299.56;10335581;28;20053;-61
2022/12/08 14:40:33;;;;;;;6.03;3.00;;;;;;;6.10;63.11;99302.22;10319840;28;20053;-62
2022/12/08 14:45:38;;;;;;;4.35;3.00;;;;;;;6.06;64.63;99306.03;10316874;28;20053;-62
2022/12/08 14:50:44;;;;;;;5.17;4.40;;;;;;;6.09;65.94;99301.34;10317939;28;20064;-62
2022/12/08 14:55:47;;;;;;;5.80;4.45;;;;;;;6.00;67.11;99304.69;10320816;28;20054;-61
2022/12/08 15:00:51;;;;;;;5.05;4.30;;;;;;;5.86;68.34;99279.31;10321036;28;20313;-61
2022/12/08 15:05:56;;;;;;;6.20;4.78;;;;;;;6.00;67.64;99295.00;10314576;28;20128;-62
2022/12/08 15:11:20;;;;;;;9.50;5.50;;;;;;;5.90;68.25;99299.25;10311565;28;20432;-61
2022/12/08 15:16:30;;;;;;;6.35;5.28;;;;;;;5.75;68.42;99300.41;10312299;28;20050;-62
2022/12/08 15:21:36;;;;;;;6.35;4.97;;;;;;;5.63;69.41;99292.47;10321791;28;20050;-65
2022/12/08 15:26:49;;;;;;;6.03;5.35;;;;;;;5.68;68.79;99301.84;10325763;28;20133;-62
2022/12/08 15:31:53;;;;;;;7.05;5.30;;;;;;;5.73;69.82;99311.09;10331533;28;20061;-62
2022/12/08 15:36:55;;;;;;;6.43;5.65;;;;;;;5.66;69.54;99294.88;10322037;28;20049;-63
2022/12/08 15:41:56;;;;;;;7.68;5.95;;;;;;;5.62;69.29;99303.97;10317073;28;20057;-63
2022/12/08 15:46:58;;;;;;;7.93;5.80;;;;;;;5.68;69.52;99301.84;10320456;28;20428;-63
2022/12/08 15:52:00;;;;;;;8.45;6.97;;;;;;;5.59;71.14;99304.22;10327404;28;20084;-62
2022/12/08 15:57:24;;;;;;;8.18;6.97;;;;;;;5.47;73.03;99299.84;10321911;28;20061;-62
2022/12/08 16:02:45;;;;;;;8.50;6.90;;;;;;;5.40;74.02;99286.25;10327557;28;20046;-62
2022/12/08 16:08:06;;;;;;;10.55;7.63;;;;;;;5.40;73.95;99288.91;10324295;28;20168;-66
2022/12/08 16:18:58;;;;;;;10.88;8.15;;;;;;;5.45;74.51;99296.47;10326235;28;20042;-64
2022/12/08 16:23:59;;;;;;;9.60;8.35;;;;;;;5.47;74.41;99302.50;10326444;28;20048;-63
2022/12/08 16:29:16;;;;;;;9.88;7.80;;;;;;;5.52;73.82;99310.91;10326572;28;20140;-61
2022/12/08 16:34:17;;;;;;;9.55;8.07;;;;;;;5.41;73.61;99310.88;10324226;28;20046;-62
2022/12/08 16:39:19;;;;;;;11.15;8.20;;;;;;;5.25;73.99;99290.88;10323049;28;20101;-62
2022/12/08 16:44:20;;;;;;;10.10;7.90;;;;;;;5.40;74.17;99310.00;10323618;28;20038;-63
2022/12/08 16:49:21;;;;;;;10.98;8.07;;;;;;;5.35;74.63;99311.34;10323564;28;20086;-63
2022/12/08 16:54:23;;;;;;;9.75;7.97;;;;;;;5.32;74.28;99286.84;10320418;28;20472;-63
2022/12/08 16:59:24;;;;;;;13.02;9.50;;;;;;;5.45;74.43;99301.75;10327496;28;20138;-62
2022/12/08 17:04:25;;;;;;;10.52;8.77;;;;;;;5.36;74.52;99299.78;10332547;28;20150;-61
2022/12/08 17:09:32;;;;;;;16.25;13.52;;;;;;;5.14;75.18;99301.38;10326619;28;20052;-62
2022/12/08 17:14:34;;;;;;;12.77;10.25;;;;;;;5.07;75.73;99295.69;10324378;28;20089;-62
2022/12/08 17:19:36;;;;;;;10.20;8.45;;;;;;;5.00;75.83;99291.00;10323775;28;20070;-62
2022/12/08 17:24:38;;;;;;;10.38;9.05;;;;;;;4.83;76.43;99286.94;10327512;28;20058;-64
2022/12/08 17:29:39;;;;;;;14.10;11.02;;;;;;;4.76;77.12;99294.47;10335732;28;20054;-63
2022/12/08 17:34:40;;;;;;;12.50;9.73;;;;;;;4.79;77.09;99283.69;10331651;28;20050;-64
2022/12/08 17:39:42;;;;;;;14.23;12.30;;;;;;;4.84;76.91;99286.84;10330724;28;20109;-63
2022/12/08 17:44:45;;;;;;;14.93;10.20;;;;;;;4.68;77.32;99270.44;10329023;28;20058;-62
2022/12/08 17:49:47;;;;;;;12.93;10.55;;;;;;;4.94;77.12;99276.47;10332328;28;20074;-62
2022/12/08 17:54:48;;;;;;;11.82;9.80;;;;;;;4.94;76.24;99285.22;10327465;28;20050;-62
2022/12/08 17:59:49;;;;;;;11.90;9.50;;;;;;;4.81;76.72;99276.50;10325655;28;20046;-62
2022/12/08 18:04:51;;;;;;;18.92;11.88;;;;;;;4.86;76.68;99284.91;10324830;28;20062;-62
2022/12/08 18:09:52;;;;;;;11.15;9.82;;;;;;;4.91;76.88;99280.16;10328030;28;20078;-61
2022/12/08 18:14:54;;;;;;;14.40;10.40;;;;;;;5.00;76.88;99283.94;10335637;28;20114;-61
2022/12/08 18:19:55;;;;;;;13.02;9.93;;;;;;;5.10;76.19;99284.97;10334222;28;20702;-64
2022/12/08 18:24:57;;;;;;;12.50;9.82;;;;;;;5.04;75.91;99292.47;10327789;28;20113;-63
2022/12/08 18:29:59;;;;;;;13.32;9.57;;;;;;;5.01;76.14;99282.13;10326142;28;20068;-63
2022/12/08 18:35:00;;;;;;;14.10;10.63;;;;;;;4.71;76.51;99233.31;10338417;28;20125;-62
2022/12/08 18:40:02;;;;;;;12.73;9.02;;;;;;;4.72;76.43;99241.09;10326806;28;20061;-62
2022/12/08 18:45:05;;;;;;;12.35;10.82;;;;;;;4.80;77.05;99263.44;10330204;28;20069;-61
2022/12/08 18:50:08;;;;;;;14.23;10.40;;;;;;;4.78;77.63;99268.81;10320734;28;20077;-61
2022/12/08 18:55:09;;;;;;;12.18;10.00;;;;;;;4.91;76.93;99276.69;10323605;28;20417;-62
2022/12/08 19:00:14;;;;;;;11.23;10.02;;;;;;;4.74;77.09;99275.25;10326250;28;20053;-64
2022/12/08 19:05:15;;;;;;;13.38;9.65;;;;;;;4.68;77.02;99278.34;10325847;28;20068;-62
2022/12/08 19:10:17;;;;;;;13.15;9.75;;;;;;;4.84;77.16;99281.56;10327488;28;20086;-61
2022/12/08 19:15:19;;;;;;;12.52;10.07;;;;;;;4.80;76.33;99279.25;10328476;28;20050;-62
2022/12/08 19:20:20;;;;;;;11.27;10.07;;;;;;;4.93;76.26;99280.88;10327509;28;20050;-60
2022/12/08 19:25:22;;;;;;;13.95;10.75;;;;;;;4.99;76.20;99289.31;10325842;28;20058;-60
2022/12/08 19:30:23;;;;;;;12.55;9.98;;;;;;;4.76;76.08;99278.66;10324934;28;20055;-66
2022/12/08 19:35:24;;;;;;;12.95;10.70;;;;;;;4.83;76.06;99300.97;10320820;28;20050;-61
2022/12/08 19:45:48;;;;;;;11.25;10.02;;;;;;;4.79;75.91;99302.16;10321768;28;20046;-60
2022/12/08 19:50:49;;;;;;;11.25;9.80;;;;;;;4.65;76.70;99286.47;10319656;28;20073;-60
2022/12/08 19:55:51;;;;;;;13.52;10.07;;;;;;;4.83;75.44;99285.13;10327516;28;20043;-61
2022/12/08 20:00:53;;;;;;;15.35;10.80;;;;;;;4.76;75.23;99287.38;10323582;28;20185;-62
2022/12/08 20:05:54;;;;;;;12.35;9.15;;;;;;;4.72;75.34;99288.56;10324248;28;20046;-61
2022/12/08 20:10:57;;;;;;;12.30;9.88;;;;;;;4.66;74.63;99277.63;10321572;28;20042;-61
2022/12/08 20:15:59;;;;;;;12.27;10.00;;;;;;;4.62;74.86;99279.63;10322052;28;20814;-61
2022/12/08 20:21:00;;;;;;;13.55;10.27;;;;;;;4.75;74.58;99277.78;10323563;28;20547;-61
2022/12/08 20:26:07;;;;;;;11.60;9.23;;;;;;;4.74;74.83;99284.03;10323755;28;20045;-61
2022/12/08 20:31:16;;;;;;;13.02;9.82;;;;;;;4.70;74.09;99273.78;10327277;28;20127;-63
2022/12/08 20:36:20;;;;;;;12.43;11.13;;;;;;;4.77;74.72;99285.59;10322145;28;20116;-63
2022/12/08 20:41:22;;;;;;;11.48;9.15;;;;;;;4.71;74.68;99280.75;10323050;28;20125;-61
2022/12/08 20:46:23;;;;;;;10.95;9.32;;;;;;;4.72;74.60;99277.19;10323206;28;20050;-62
2022/12/08 20:51:26;;;;;;;11.57;9.35;;;;;;;4.76;74.01;99278.66;10320681;28;20394;-61
2022/12/08 20:56:32;;;;;;;12.02;9.40;;;;;;;4.76;74.30;99273.38;10324006;28;20149;-61
2022/12/08 21:01:33;;;;;;;14.70;9.45;;;;;;;4.79;74.16;99283.69;10329008;28;20232;-61
2022/12/08 21:06:35;;;;;;;11.20;9.32;;;;;;;4.82;74.94;99288.75;10327491;28;20053;-61
2022/12/08 21:11:36;;;;;;;11.98;9.90;;;;;;;4.90;74.08;99282.91;10328806;28;20058;-61
2022/12/08 21:16:38;;;;;;;14.10;11.68;;;;;;;4.87;73.78;99281.34;10333595;28;20468;-62
2022/12/08 21:21:40;;;;;;;12.23;10.40;;;;;;;4.68;74.51;99259.88;10330017;28;20428;-63
2022/12/08 21:26:42;;;;;;;14.27;10.45;;;;;;;4.83;74.41;99285.13;10328410;28;20137;-61
2022/12/08 21:31:43;;;;;;;15.00;11.75;;;;;;;4.67;74.59;99287.19;10330167;28;20054;-62
2022/12/08 21:36:45;;;;;;;25.83;21.98;;;;;;;4.64;74.75;99276.88;10331675;28;20581;-61
2022/12/08 21:42:47;;;;;;;12.60;10.30;;;;;;;4.84;74.18;99291.28;10330269;28;20524;-62
2022/12/08 21:47:21;;;;;;;12.55;10.13;;;;;;;4.63;73.74;99257.59;10319955;28;20107;-61
2022/12/08 21:52:23;;;;;;;13.63;9.75;;;;;;;4.73;74.35;99284.16;10325386;28;20105;-63
2022/12/08 21:57:24;;;;;;;15.43;10.75;;;;;;;4.71;74.61;99278.94;10326242;28;20049;-62
2022/12/08 22:02:26;;;;;;;11.95;9.93;;;;;;;4.74;74.41;99283.16;10332055;28;20061;-61
2022/12/08 22:07:27;;;;;;;13.93;10.10;;;;;;;4.73;74.45;99289.41;10324214;28;20050;-60
2022/12/08 22:12:29;;;;;;;14.00;11.93;;;;;;;4.69;74.58;99294.03;10332735;28;20477;-60
2022/12/08 22:17:34;;;;;;;12.63;10.15;;;;;;;4.77;74.99;99297.00;10330108;28;20042;-59
2022/12/08 22:22:36;;;;;;;12.38;10.68;;;;;;;4.73;75.11;99284.16;10327565;28;20141;-60
2022/12/08 22:27:38;;;;;;;13.95;11.68;;;;;;;4.77;74.71;99290.84;10328810;28;20137;-61
2022/12/08 22:32:40;;;;;;;12.73;10.35;;;;;;;4.58;74.93;99276.38;10331097;28;20041;-62
2022/12/08 22:37:42;;;;;;;13.93;11.77;;;;;;;4.73;75.37;99297.31;10329521;28;20771;-61
2022/12/08 22:42:43;;;;;;;15.13;11.82;;;;;;;4.67;75.92;99295.97;10332205;28;20050;-62
2022/12/08 22:47:44;;;;;;;17.35;11.52;;;;;;;4.68;76.42;99284.44;10330292;28;20053;-60
2022/12/08 22:52:46;;;;;;;15.02;12.82;;;;;;;4.52;76.60;99286.47;10330050;28;20268;-60
2022/12/08 22:57:47;;;;;;;16.75;13.43;;;;;;;4.49;76.84;99277.03;10326993;28;20061;-60
2022/12/08 23:02:49;;;;;;;14.32;12.18;;;;;;;4.46;77.30;99271.97;10327353;28;20052;-60
2022/12/08 23:07:50;;;;;;;15.32;13.00;;;;;;;4.54;76.99;99263.50;10330197;28;20445;-62
2022/12/08 23:12:52;;;;;;;15.13;12.75;;;;;;;4.56;76.57;99273.00;10323625;28;20444;-60
2022/12/08 23:17:53;;;;;;;13.88;12.00;;;;;;;4.55;76.71;99266.03;10328049;28;20070;-60
2022/12/08 23:22:55;;;;;;;16.13;12.07;;;;;;;4.60;76.56;99270.97;10328872;28;20181;-61
2022/12/08 23:27:56;;;;;;;15.38;12.80;;;;;;;4.64;76.09;99269.81;10329095;28;20104;-60
2022/12/08 23:32:57;;;;;;;16.05;13.38;;;;;;;4.66;76.64;99267.91;10328978;28;20142;-61
2022/12/08 23:37:59;;;;;;;14.93;12.55;;;;;;;4.73;76.26;99263.06;10329882;28;20513;-60
2022/12/08 23:43:01;;;;;;;15.35;13.40;;;;;;;4.77;75.92;99275.03;10332818;28;20057;-60
2022/12/08 23:48:02;;;;;;;13.90;11.40;;;;;;;4.77;75.92;99260.09;10330558;28;20078;-60